Terminal Aerodrome Forecast
Issued by NWS Wilmington, OH

Current Version | Previous Version | Text Only | Print | Product List | Glossary Off
Versions: 1 2 3 4 5 6 7 8 9 10 11 12 13 14 15 16 17 18 19 20 21 22 23 24 25

000
FTUS41 KILN 280500
TAFCVG
TAF
KCVG 280530Z 2806/2912 28009KT P6SM FEW060
     FM280900 30008KT P6SM SCT015
     FM281500 32011KT P6SM BKN025
     FM281700 32011G19KT P6SM VCSH BKN035
     FM290100 33007KT P6SM SCT035=

USA.gov is the U.S. government's official web portal to all federal, state and local government web resources and services.